Aviation Digital Data Service (ADDS)

Output produced by METARs form (0850 UTC 25 April 2019)
found at http://www.aviationweather.gov/metar/data/
 
PGUM 250520Z 2506/2612 08016G25KT P6SM VCSH SCT018 SCT040 BKN120 
     FM250800 09011KT P6SM VCSH SCT020 SCT050